SILO ALERT LOG
| Silo ID | Alert Type | Alert Message | Silo Type | Points | Depth (mm) | Strength | Temperature (°C) | Humidity (%) | Height (mm) | Volume (㎥) | Weight (t) | Flag | Time |
|---|---|---|---|---|---|---|---|---|---|---|---|---|---|
| DJSSD12 | Temperature | 온도센서 상태 이상 | 호퍼 | 0 | 11350 | 0 | -999 | -999 | -120 | 0 | 0 | 31 | 2024-01-10 23:39:24.000 |
| DJHNR12 | Temperature | 온도센서 측정값이 0도 미만 | 호퍼 | 0 | 10500 | 0 | -2.7 | 82.5 | -120 | 0 | 0 | 31 | 2024-01-10 23:39:23.000 |
| DJHNR12 | Humidity | 습도센서 측정값이 80% 초과 | 호퍼 | 0 | 10500 | 0 | -2.7 | 82.5 | -120 | 0 | 0 | 31 | 2024-01-10 23:39:23.000 |
| DJSAD01 | Humidity | 습도센서 측정값이 80% 초과 | 평 | 466 | 1480 | 7303 | 1 | 88.4 | 7299 | 302.167 | 191.03 | 0 | 2024-01-10 22:39:41.000 |
| DJSAD03 | Humidity | 습도센서 측정값이 80% 초과 | 평 | 438 | 1712 | 6115 | 2.1 | 84.5 | 7067 | 292.576 | 184.967 | 0 | 2024-01-10 22:39:40.000 |
| DJSAD02 | Humidity | 습도센서 측정값이 80% 초과 | 평 | 388 | 1138 | 4275 | 1.7 | 87.8 | 7641 | 316.349 | 199.996 | 11 | 2024-01-10 22:39:39.000 |
| DJSAD07 | Humidity | 습도센서 측정값이 80% 초과 | 평 | 213 | 1402 | 1875 | 4.5 | 80.8 | 6177 | 878.963 | 550 | 11 | 2024-01-10 22:39:39.000 |
| DJDJD03 | Humidity | 습도센서 측정값이 80% 초과 | 평 | 62 | 4533 | 5056 | 2.1 | 80.3 | 3146 | 381.263 | 241.035 | 0 | 2024-01-10 22:39:39.000 |
| DJSAD08 | Humidity | 습도센서 측정값이 80% 초과 | 평 | 0 | 7700 | 3865 | 11.5 | 82.1 | -120 | -17.075 | 0 | 12 | 2024-01-10 22:39:38.000 |
| DJSAD11 | Humidity | 습도센서 측정값이 80% 초과 | 평 | 338 | 1648 | 3253 | 1.3 | 80.4 | 5931 | 843.963 | 533.553 | 11 | 2024-01-10 22:39:34.000 |
| DJHNR11 | Temperature | 온도센서 측정값이 0도 미만 | 호퍼 | 227 | 3285 | 1072 | -3.4 | 75 | 7094 | 99.083 | 62.64 | 11 | 2024-01-10 22:39:33.000 |
| DJSAD12 | Humidity | 습도센서 측정값이 80% 초과 | 평 | 0 | 7700 | 0 | 2.7 | 86.5 | -120 | -17.075 | 0 | 31 | 2024-01-10 22:39:33.000 |
| DJSSD01 | Humidity | 습도센서 측정값이 80% 초과 | 평 | 791 | 2568 | 4651 | 5.1 | 83.4 | 5511 | 767.122 | 484.975 | 0 | 2024-01-10 22:39:33.000 |
| DJSSD04 | Temperature | 온도센서 상태 이상 | 평 | 0 | 8200 | 0 | -999 | -999 | -120 | -16.702 | 0 | 31 | 2024-01-10 22:39:33.000 |
| DJHNR01 | Humidity | 습도센서 측정값이 80% 초과 | 호퍼 | 471 | 4307 | 5003 | 3.5 | 99.9 | 11072 | 472.84 | 298.929 | 13 | 2024-01-10 22:39:33.000 |
| DJSSD11 | Temperature | 온도센서 측정값이 0도 미만 | 호퍼 | 446 | 7403 | 147 | -3.3 | 78.7 | 3826 | 28.602 | 15.588 | 0 | 2024-01-10 22:39:32.000 |
| DJDJD04 | Humidity | 습도센서 측정값이 80% 초과 | 평 | 277 | 4197 | 4457 | 2.9 | 81.5 | 3482 | 421.923 | 266.74 | 11 | 2024-01-10 22:39:32.000 |
| DJSSD05 | Temperature | 온도센서 측정값이 0도 미만 | 평 | 840 | 2546 | 4886 | -45.4 | 43.8 | 5533 | 770.166 | 486.899 | 0 | 2024-01-10 22:39:32.000 |
| DJSAD16 | Humidity | 습도센서 측정값이 80% 초과 | 평 | 89 | 6530 | 3411 | 3.9 | 80.4 | 1049 | 104.536 | 66.087 | 11 | 2024-01-10 22:39:31.000 |
| DJSSD09 | Temperature | 온도센서 측정값이 0도 미만 | 평 | 125 | 2976 | 3280 | -45.4 | 0 | 4703 | 654.63 | 413.857 | 11 | 2024-01-10 22:39:31.000 |
[첫 페이지] [10010] [10011] [10012] [10013] 10014 [10015] [10016] [10017] [10018] [마지막 페이지]